Time;durP1;ratioP1;P1;durP2;ratioP2;P2;SDS_P1;SDS_P2;PMS_P1;PMS_P2;Temp;Humidity;BMP_temperature;BMP_pressure;BME280_temperature;BME280_humidity;BME280_pressure;Samples;Min_cycle;Max_cycle;Signal;HPM_P1;HPM_P2
2021/01/01 17:53:05;;;;;;;18.58;11.98;;;16.90;70.40;;;;;;4728441;27;10001409;-56
2021/01/01 17:55:31;;;;;;;23.50;12.63;;;16.90;71.40;;;;;;5078103;28;20040;-59
2021/01/01 17:57:56;;;;;;;22.10;11.70;;;17.00;71.40;;;;;;5080099;28;20082;-58
2021/01/01 18:00:22;;;;;;;20.65;12.05;;;17.00;72.60;;;;;;5081045;28;20439;-59
2021/01/01 18:02:47;;;;;;;18.30;11.63;;;17.00;71.70;;;;;;5079253;28;20138;-58
2021/01/01 18:05:13;;;;;;;19.20;11.00;;;17.10;71.50;;;;;;5081214;28;20643;-55
2021/01/01 18:07:39;;;;;;;23.40;11.52;;;17.10;71.50;;;;;;5079439;28;20039;-60
2021/01/01 18:10:05;;;;;;;20.15;12.38;;;17.20;71.60;;;;;;5080633;28;20028;-62
2021/01/01 18:12:31;;;;;;;23.73;12.38;;;17.20;71.60;;;;;;5076735;28;20438;-61
2021/01/01 18:14:58;;;;;;;26.25;12.05;;;17.20;72.10;;;;;;5080912;28;20033;-64
2021/01/01 18:17:24;;;;;;;19.73;10.88;;;17.30;71.40;;;;;;5081898;28;20044;-59
2021/01/01 18:19:49;;;;;;;18.23;11.15;;;17.30;71.40;;;;;;5076191;28;20189;-59
2021/01/01 18:22:16;;;;;;;24.30;13.73;;;17.30;71.20;;;;;;5079622;28;20474;-61
2021/01/01 18:24:41;;;;;;;34.58;15.02;;;17.30;71.30;;;;;;5081445;28;20113;-57
2021/01/01 18:27:07;;;;;;;27.75;12.20;;;17.30;71.20;;;;;;5080365;28;20114;-59
2021/01/01 18:29:33;;;;;;;22.80;14.05;;;17.30;71.10;;;;;;5080673;28;20032;-61
2021/01/01 18:32:02;;;;;;;19.58;14.43;;;17.40;71.00;;;;;;5081196;28;20036;-61
2021/01/01 18:34:29;;;;;;;27.10;11.40;;;17.30;70.80;;;;;;5079718;28;20128;-56
2021/01/01 18:36:56;;;;;;;25.85;13.02;;;17.40;70.70;;;;;;5079918;28;20074;-59
2021/01/01 18:39:22;;;;;;;22.15;12.00;;;17.30;70.50;;;;;;5079566;28;20508;-60
2021/01/01 18:41:52;;;;;;;16.88;10.30;;;17.40;70.20;;;;;;5077720;28;20032;-57
2021/01/01 18:44:26;;;;;;;16.45;11.95;;;17.40;70.00;;;;;;5081839;28;20024;-58
2021/01/01 18:46:55;;;;;;;19.92;12.63;;;17.40;70.10;;;;;;5082643;28;20470;-54
2021/01/01 18:49:20;;;;;;;19.23;11.90;;;17.40;70.10;;;;;;5079975;28;20025;-57
2021/01/01 18:51:49;;;;;;;18.50;12.32;;;17.30;69.70;;;;;;5078360;28;20051;-61
2021/01/01 18:54:15;;;;;;;17.92;12.13;;;17.30;69.60;;;;;;5077871;28;20032;-63
2021/01/01 18:56:47;;;;;;;17.40;12.50;;;17.40;69.60;;;;;;5078892;28;20024;-56
2021/01/01 18:59:42;;;;;;;17.95;11.23;;;17.40;69.60;;;;;;5080449;28;20395;-50
2021/01/01 19:02:10;;;;;;;19.70;12.18;;;17.40;69.40;;;;;;5038212;28;20091;-57
2021/01/01 19:04:57;;;;;;;17.95;12.07;;;17.40;69.40;;;;;;5023130;28;20397;-61
2021/01/01 19:07:52;;;;;;;15.57;10.73;;;17.40;69.30;;;;;;5023719;28;20130;-63
2021/01/01 19:10:21;;;;;;;;;;;17.40;69.10;;;;;;5023864;28;20044;-53
2021/01/01 19:12:54;;;;;;;17.75;10.77;;;17.40;68.90;;;;;;5027290;28;19970;-61
2021/01/01 19:15:23;;;;;;;18.52;9.70;;;17.40;68.90;;;;;;5025336;28;20021;-62
2021/01/01 19:17:58;;;;;;;21.63;12.57;;;17.40;68.80;;;;;;5023028;28;20025;-58
2021/01/01 19:20:26;;;;;;;15.52;11.18;;;17.50;68.90;;;;;;5023882;28;20045;-62
2021/01/01 19:23:15;;;;;;;20.20;11.20;;;17.50;68.60;;;;;;5025803;28;20056;-64
2021/01/01 19:25:40;;;;;;;14.45;10.50;;;17.50;68.30;;;;;;5024921;28;20610;-56
2021/01/01 19:28:06;;;;;;;17.20;12.43;;;17.50;68.20;;;;;;5026293;28;20041;-58
2021/01/01 19:30:32;;;;;;;13.75;10.73;;;17.50;67.90;;;;;;5025975;28;20030;-56
2021/01/01 19:33:05;;;;;;;13.32;10.35;;;17.60;68.30;;;;;;5026408;28;20057;-59
2021/01/01 19:35:51;;;;;;;14.13;9.50;;;17.60;68.20;;;;;;5025376;28;20032;-62
2021/01/01 19:38:29;;;;;;;25.25;10.18;;;17.60;68.00;;;;;;5031959;28;20055;-56
2021/01/01 19:41:19;;;;;;;14.00;10.13;;;17.50;67.90;;;;;;5064893;28;20036;-62
2021/01/01 19:44:10;;;;;;;15.60;10.50;;;17.50;67.90;;;;;;5066756;28;20373;-63
2021/01/01 19:47:03;;;;;;;15.25;10.20;;;17.50;67.90;;;;;;5064543;28;20519;-62
2021/01/01 19:49:54;;;;;;;13.90;10.73;;;17.50;68.00;;;;;;5082876;28;20028;-62
2021/01/01 19:52:32;;;;;;;12.95;9.60;;;17.50;68.10;;;;;;5064156;28;20131;-63
2021/01/01 19:55:05;;;;;;;12.15;8.90;;;17.50;68.00;;;;;;5065763;28;20184;-62
2021/01/01 19:57:58;;;;;;;13.88;8.90;;;17.50;67.80;;;;;;5064248;28;20033;-63
2021/01/01 20:00:44;;;;;;;13.73;7.68;;;17.50;67.70;;;;;;5065365;28;20111;-62
2021/01/01 20:03:27;;;;;;;12.88;8.40;;;17.50;67.80;;;;;;5066218;28;20032;-58
2021/01/01 20:05:52;;;;;;;13.88;8.02;;;17.50;67.70;;;;;;5086900;27;20027;-60
2021/01/01 20:08:25;;;;;;;13.95;7.68;;;17.50;67.70;;;;;;5066650;28;20029;-61
2021/01/01 20:10:51;;;;;;;15.48;8.40;;;17.50;67.50;;;;;;5067994;28;20030;-61
2021/01/01 20:13:16;;;;;;;16.15;8.25;;;17.50;67.50;;;;;;5068503;28;20040;-61
2021/01/01 20:15:42;;;;;;;13.25;7.97;;;17.50;67.60;;;;;;5066582;28;20029;-62
2021/01/01 20:18:08;;;;;;;11.13;7.57;;;17.60;67.60;;;;;;5066441;28;20032;-60
2021/01/01 20:20:34;;;;;;;9.70;7.55;;;17.60;67.60;;;;;;5063362;28;20386;-57
2021/01/01 20:23:01;;;;;;;9.43;7.70;;;17.60;67.70;;;;;;5067156;28;20082;-62
2021/01/01 20:25:27;;;;;;;9.50;7.82;;;17.60;67.60;;;;;;5064250;28;20039;-56
2021/01/01 20:27:54;;;;;;;11.10;7.97;;;17.60;67.60;;;;;;5066685;28;20124;-62
2021/01/01 20:30:27;;;;;;;8.45;7.47;;;17.60;67.60;;;;;;5067469;28;20488;-57
2021/01/01 20:32:58;;;;;;;10.02;7.10;;;17.60;67.60;;;;;;5067514;28;20036;-62
2021/01/01 20:35:34;;;;;;;11.82;7.72;;;17.60;67.70;;;;;;5068550;28;20029;-61
2021/01/01 20:38:05;;;;;;;12.65;7.82;;;17.60;67.60;;;;;;5058866;28;21336;-61
2021/01/01 20:40:42;;;;;;;11.80;6.78;;;17.60;67.60;;;;;;5066875;28;20020;-59
2021/01/01 20:43:20;;;;;;;12.20;7.53;;;17.60;67.50;;;;;;5064663;28;20032;-61
2021/01/01 20:55:04;;;;;;;9.30;6.68;;;17.60;67.40;;;;;;5066567;28;19955;-63
2021/01/01 20:56:56;;;;;;;8.85;6.85;;;17.60;67.40;;;;;;5068541;28;20033;-62
2021/01/01 20:59:23;;;;;;;10.35;6.68;;;17.60;67.30;;;;;;5067312;28;20071;-55
2021/01/01 21:01:49;;;;;;;12.30;7.20;;;17.60;67.20;;;;;;5068760;28;20157;-64
2021/01/01 21:04:15;;;;;;;9.88;6.57;;;17.60;67.00;;;;;;5068033;28;20029;-62
2021/01/01 21:06:52;;;;;;;7.88;6.45;;;17.70;66.90;;;;;;5067669;28;20028;-61
2021/01/01 21:09:18;;;;;;;9.52;6.30;;;17.70;66.90;;;;;;5068221;28;20112;-58
2021/01/01 21:12:22;;;;;;;16.52;6.90;;;17.70;66.70;;;;;;5067229;28;20396;-59
2021/01/01 21:15:13;;;;;;;10.85;6.60;;;17.70;66.60;;;;;;5065364;28;20085;-62
2021/01/01 21:18:04;;;;;;;6.97;6.28;;;17.70;66.50;;;;;;5059492;28;20032;-53
2021/01/01 21:21:07;;;;;;;11.55;6.78;;;17.70;66.50;;;;;;5064504;28;20099;-49
2021/01/01 21:23:45;;;;;;;8.23;6.65;;;17.70;66.30;;;;;;5066297;28;20040;-63
2021/01/01 21:26:59;;;;;;;7.20;6.55;;;17.70;66.20;;;;;;5069259;28;20024;-63
2021/01/01 21:29:29;;;;;;;10.68;7.38;;;17.70;66.10;;;;;;5015794;28;20041;-65
2021/01/01 21:32:26;;;;;;;22.00;7.95;;;17.70;66.00;;;;;;5013034;28;20050;-61
2021/01/01 21:35:09;;;;;;;9.80;7.57;;;17.70;66.20;;;;;;4996190;28;20038;-58
2021/01/01 21:37:38;;;;;;;12.40;8.38;;;17.80;66.20;;;;;;5009457;28;20068;-44
2021/01/01 21:40:33;;;;;;;8.90;7.57;;;17.80;66.10;;;;;;5004378;28;20049;-46
2021/01/01 21:43:40;;;;;;;8.88;7.97;;;17.80;66.10;;;;;;4951669;28;20049;-65
2021/01/01 21:46:24;;;;;;;8.80;6.88;;;17.80;65.90;;;;;;4966596;28;20030;-60
2021/01/01 21:49:15;;;;;;;7.38;6.60;;;17.70;65.90;;;;;;4966968;28;20525;-63
2021/01/01 21:51:40;;;;;;;10.90;6.32;;;17.70;65.80;;;;;;4966505;28;20082;-63
2021/01/01 21:54:06;;;;;;;11.98;8.15;;;17.80;65.70;;;;;;4951559;28;20077;-63
2021/01/01 21:56:31;;;;;;;12.00;8.52;;;17.70;65.60;;;;;;4950663;28;20036;-64
2021/01/01 21:58:57;;;;;;;8.63;7.78;;;17.80;65.70;;;;;;4968514;28;20027;-66
2021/01/01 22:01:24;;;;;;;9.02;7.75;;;17.70;65.50;;;;;;4966664;28;20114;-61
2021/01/01 22:03:53;;;;;;;9.30;7.82;;;17.70;65.60;;;;;;4967545;28;20026;-62
2021/01/01 22:06:22;;;;;;;9.45;7.18;;;17.70;65.50;;;;;;4983580;28;20034;-61
2021/01/01 22:08:47;;;;;;;7.97;7.25;;;17.70;66.20;;;;;;5004307;28;20042;-63
2021/01/01 22:11:13;;;;;;;7.80;7.07;;;17.70;65.40;;;;;;5004492;28;20100;-62
2021/01/01 22:13:39;;;;;;;8.95;6.72;;;17.70;65.50;;;;;;5004949;28;20081;-62
2021/01/01 22:16:05;;;;;;;9.55;7.00;;;17.60;65.40;;;;;;5001944;28;20493;-60
2021/01/01 22:18:30;;;;;;;9.40;7.80;;;17.60;65.40;;;;;;5005300;28;20026;-60
2021/01/01 22:20:56;;;;;;;9.48;7.10;;;17.60;65.30;;;;;;5063298;28;20071;-63
2021/01/01 22:23:21;;;;;;;13.32;7.47;;;17.70;65.30;;;;;;5068152;28;20488;-62
2021/01/01 22:25:47;;;;;;;8.77;7.88;;;17.60;65.20;;;;;;5069447;28;20076;-63
2021/01/01 22:28:13;;;;;;;8.95;7.80;;;17.60;65.20;;;;;;5065614;28;20028;-64
2021/01/01 22:30:38;;;;;;;8.35;7.45;;;17.70;65.10;;;;;;5066452;28;20027;-62
2021/01/01 22:33:04;;;;;;;8.63;7.90;;;17.60;65.00;;;;;;5068666;28;20058;-65
2021/01/01 22:35:29;;;;;;;9.07;6.93;;;17.60;65.10;;;;;;5068078;28;20020;-64
2021/01/01 22:37:55;;;;;;;8.98;8.02;;;17.60;65.20;;;;;;5070204;28;20149;-65
2021/01/01 22:40:21;;;;;;;10.30;8.02;;;17.60;65.10;;;;;;5070789;28;20643;-60
2021/01/01 22:42:46;;;;;;;9.88;7.43;;;17.60;65.00;;;;;;5070634;28;20027;-68
2021/01/01 22:45:12;;;;;;;7.57;6.78;;;17.60;65.10;;;;;;5070328;28;20099;-64
2021/01/01 22:47:38;;;;;;;11.38;7.28;;;17.60;64.90;;;;;;5069498;28;20108;-63
2021/01/01 22:50:04;;;;;;;9.48;7.97;;;17.60;64.90;;;;;;5070405;28;21570;-64
2021/01/01 22:52:30;;;;;;;8.48;7.53;;;17.60;64.70;;;;;;5068705;28;20056;-61
2021/01/01 22:54:59;;;;;;;12.40;7.88;;;17.50;64.80;;;;;;5066608;28;20411;-63
2021/01/01 22:57:39;;;;;;;9.27;7.43;;;17.50;64.70;;;;;;5066755;28;20066;-59
2021/01/01 23:00:08;;;;;;;7.97;7.15;;;17.60;64.80;;;;;;5068616;28;20023;-60
2021/01/01 23:02:33;;;;;;;10.80;8.18;;;17.50;64.50;;;;;;5067855;28;20393;-55
2021/01/01 23:05:00;;;;;;;10.05;8.45;;;17.50;64.70;;;;;;5070021;28;20029;-60
2021/01/01 23:07:25;;;;;;;7.95;6.78;;;17.50;64.50;;;;;;5086454;28;20028;-62
2021/01/01 23:09:51;;;;;;;8.23;7.13;;;17.50;65.40;;;;;;5050988;28;20033;-65
2021/01/01 23:12:17;;;;;;;10.00;7.22;;;17.50;64.60;;;;;;5069212;28;20041;-54
2021/01/01 23:14:42;;;;;;;9.80;7.80;;;17.50;64.40;;;;;;5068980;28;20029;-59
2021/01/01 23:17:08;;;;;;;9.80;7.53;;;17.50;64.40;;;;;;5072038;28;20090;-62
2021/01/01 23:19:38;;;;;;;9.45;8.35;;;17.50;64.40;;;;;;5085379;28;20029;-63
2021/01/01 23:22:04;;;;;;;9.35;7.65;;;17.50;65.10;;;;;;5068624;28;20517;-48
2021/01/01 23:24:57;;;;;;;10.63;7.85;;;17.50;64.20;;;;;;5069493;28;20024;-62
2021/01/01 23:27:50;;;;;;;8.65;7.53;;;17.50;64.30;;;;;;5066564;28;20030;-62
2021/01/01 23:30:21;;;;;;;13.55;8.85;;;17.50;64.20;;;;;;5069503;28;20032;-63
2021/01/01 23:33:09;;;;;;;12.10;8.55;;;17.50;64.70;;;;;;5070366;28;20591;-59
2021/01/01 23:35:48;;;;;;;9.45;8.38;;;17.50;64.90;;;;;;5085585;28;20078;-64
2021/01/01 23:38:31;;;;;;;10.80;8.80;;;17.50;65.00;;;;;;5068482;28;20031;-62
2021/01/01 23:41:00;;;;;;;12.57;8.55;;;17.50;65.00;;;;;;5068465;28;20021;-61
2021/01/01 23:43:42;;;;;;;9.90;8.90;;;17.50;65.00;;;;;;5070108;28;20024;-64
2021/01/01 23:46:21;;;;;;;13.63;8.40;;;17.50;64.90;;;;;;5066895;28;20059;-66
2021/01/01 23:48:48;;;;;;;10.85;9.07;;;17.50;64.80;;;;;;5069971;28;20381;-64
2021/01/01 23:51:13;;;;;;;12.25;8.25;;;17.50;64.70;;;;;;5070038;28;20386;-63
2021/01/01 23:53:40;;;;;;;8.38;7.40;;;17.50;64.60;;;;;;5070760;28;20032;-63
2021/01/01 23:56:08;;;;;;;12.48;7.97;;;17.50;64.50;;;;;;5067638;28;20049;-62
2021/01/01 23:58:34;;;;;;;11.57;8.20;;;17.50;64.40;;;;;;5069706;28;20439;-62
